KGUC

Gunnison-Crested Butte Regional Airport

Gunnison, Colorado, USA
KGUC 202335Z 2100/2124 VRB04KT P6SM FEW250 FM210200 VRB04KT P6SM FEW250 FM211500 VRB04KT P6SM SCT080 BKN200
Issued Valid From Valid To
Aug-20 @ 23:35 UTC
(18 hours ago)
Aug-21 @ 00:00 UTC
(18 hours ago)
Aug-22 @ 00:00 UTC
(in 6 hours)
Expired Click to View Aug-21 @ 00:00 to Aug-21 @ 02:00
KGUC 202335Z 2100/2124 VRB04KT P6SM FEW250
Wind Visibility Clouds
Variable at 4 knots Greater than 6 miles
  • Few at 25,000' AGL
Expired Click to View Aug-21 @ 02:00 to Aug-21 @ 15:00
FM210200 VRB04KT P6SM FEW250
Wind Visibility Clouds
Variable at 4 knots Greater than 6 miles
  • Few at 25,000' AGL
From Aug-21 @ 15:00 to Aug-22 @ 00:00
FM211500 VRB04KT P6SM SCT080 BKN200
Wind Visibility Clouds
Variable at 4 knots Greater than 6 miles
  • Scattered at 8,000' AGL
  • Broken at 20,000' AGL
KGUC 202335Z 2100/2124 VRB04KT P6SM FEW250 FM210200 VRB04KT P6SM FEW250 FM211500 VRB04KT P6SM SCT080 BKN200
Issued Aug-20 @ 23:35 UTC
(18 hours ago)
Valid From Aug-21 @ 00:00 UTC
(18 hours ago)
Valid To Aug-22 @ 00:00 UTC
(in 6 hours)
Aug-21 @ 00:00 - Aug-21 @ 02:00
Wind Visibility
Variable at 4 knots Greater than 6 miles
Clouds
  • Few at 25,000' AGL
Aug-21 @ 02:00 - Aug-21 @ 15:00
Wind Visibility
Variable at 4 knots Greater than 6 miles
Clouds
  • Few at 25,000' AGL
From Aug-21 @ 15:00 - Aug-22 @ 00:00
Wind Visibility
Variable at 4 knots Greater than 6 miles
Clouds
  • Scattered at 8,000' AGL
  • Broken at 20,000' AGL